Time;durP1;ratioP1;P1;durP2;ratioP2;P2;SDS_P1;SDS_P2;PMS_P1;PMS_P2;Temp;Humidity;BMP_temperature;BMP_pressure;BME280_temperature;BME280_humidity;BME280_pressure;Samples;Min_cycle;Max_cycle;Signal;HPM_P1;HPM_P2
2021/05/23 00:01:10;;;;;;;12.80;3.20;;;8.30;94.00;;;;;;4998391;28;20045;-85
2021/05/23 00:03:36;;;;;;;8.20;3.03;;;8.20;94.00;;;;;;4986949;28;21168;-86
2021/05/23 00:06:04;;;;;;;9.60;3.10;;;8.20;94.00;;;;;;5029196;28;20120;-86
2021/05/23 00:08:30;;;;;;;10.53;3.10;;;8.20;94.10;;;;;;5021512;28;20425;-85
2021/05/23 00:11:02;;;;;;;11.60;3.27;;;8.10;94.20;;;;;;5037037;28;20048;-86
2021/05/23 00:13:34;;;;;;;9.60;2.97;;;8.00;94.20;;;;;;5028938;28;20033;-85
2021/05/23 00:16:04;;;;;;;6.77;2.73;;;8.00;94.30;;;;;;5013105;28;20251;-86
2021/05/23 00:18:36;;;;;;;10.87;3.10;;;8.00;94.30;;;;;;5000021;28;20049;-86
2021/05/23 00:21:04;;;;;;;7.93;2.67;;;7.90;94.30;;;;;;5001076;28;20065;-85
2021/05/23 00:23:30;;;;;;;9.00;2.60;;;7.90;94.30;;;;;;4981449;28;20073;-86
2021/05/23 00:25:56;;;;;;;10.03;2.63;;;7.80;94.30;;;;;;4996213;28;20049;-85
2021/05/23 00:28:22;;;;;;;9.97;3.07;;;7.80;94.30;;;;;;4982812;28;20172;-86
2021/05/23 00:30:48;;;;;;;11.67;2.33;;;7.70;94.30;;;;;;4983387;28;20041;-85
2021/05/23 00:33:15;;;;;;;10.07;2.63;;;7.70;94.40;;;;;;5014754;28;20038;-83
2021/05/23 00:35:41;;;;;;;11.93;3.17;;;7.60;94.40;;;;;;5017508;28;20199;-85
2021/05/23 00:38:08;;;;;;;9.97;3.20;;;7.60;94.40;;;;;;4984864;28;20506;-85
2021/05/23 00:40:35;;;;;;;14.47;3.23;;;7.60;94.40;;;;;;4997724;28;20095;-85
2021/05/23 00:43:09;;;;;;;9.83;2.80;;;7.50;94.50;;;;;;4998272;28;20041;-86
2021/05/23 00:45:36;;;;;;;9.87;2.60;;;7.50;94.50;;;;;;4999355;28;20041;-84
2021/05/23 00:48:02;;;;;;;13.67;2.90;;;7.40;94.60;;;;;;4998541;28;20141;-86
2021/05/23 00:50:29;;;;;;;6.17;2.20;;;7.40;94.60;;;;;;4982392;28;20041;-85
2021/05/23 00:52:56;;;;;;;11.37;2.30;;;7.30;94.60;;;;;;4997447;28;20125;-85
2021/05/23 00:55:22;;;;;;;10.43;2.27;;;7.30;94.70;;;;;;4995307;28;20030;-85
2021/05/23 00:57:49;;;;;;;10.73;2.73;;;7.30;94.70;;;;;;5006944;28;20128;-86
2021/05/23 01:00:40;;;;;;;10.80;2.70;;;7.30;94.80;;;;;;5008773;28;20231;-86
2021/05/23 01:03:28;;;;;;;13.60;2.80;;;7.30;94.80;;;;;;5008339;28;20530;-86
2021/05/23 01:06:12;;;;;;;13.70;3.03;;;7.20;94.80;;;;;;5012600;28;20363;-86
2021/05/23 01:08:39;;;;;;;10.20;3.20;;;7.20;94.80;;;;;;5007591;28;20041;-86
2021/05/23 01:11:15;;;;;;;9.97;3.10;;;7.10;94.80;;;;;;4997757;28;20073;-86
2021/05/23 01:13:44;;;;;;;8.57;2.50;;;7.00;94.80;;;;;;5003562;28;20038;-86
2021/05/23 01:16:17;;;;;;;8.53;2.80;;;7.00;94.90;;;;;;5005879;28;20535;-85
2021/05/23 01:19:00;;;;;;;12.00;3.17;;;6.90;94.90;;;;;;5006148;28;20816;-86
2021/05/23 01:21:32;;;;;;;8.43;3.10;;;6.90;95.30;;;;;;5005714;28;20042;-86
2021/05/23 01:24:02;;;;;;;10.00;3.10;;;6.80;95.00;;;;;;5006059;28;20091;-85
2021/05/23 01:26:44;;;;;;;9.02;2.67;;;6.70;95.10;;;;;;5002484;28;20049;-85
2021/05/23 01:29:11;;;;;;;13.10;3.43;;;6.70;95.10;;;;;;5004504;28;20045;-84
2021/05/23 01:31:39;;;;;;;10.13;3.57;;;6.70;95.20;;;;;;5006260;28;20041;-85
2021/05/23 01:34:07;;;;;;;6.40;3.00;;;6.70;95.20;;;;;;5002806;28;20038;-85
2021/05/23 01:36:36;;;;;;;15.33;3.90;;;6.60;95.30;;;;;;4985063;28;20091;-85
2021/05/23 01:39:07;;;;;;;6.47;2.75;;;6.60;95.20;;;;;;5002766;28;20042;-84
2021/05/23 01:41:36;;;;;;;10.40;3.55;;;6.50;95.20;;;;;;5002333;28;20034;-84
2021/05/23 01:44:03;;;;;;;8.20;2.40;;;6.50;95.20;;;;;;5005985;28;20278;-84
2021/05/23 01:46:29;;;;;;;10.47;3.00;;;6.50;95.30;;;;;;5021528;28;20173;-84
2021/05/23 01:48:55;;;;;;;9.57;3.87;;;6.40;95.30;;;;;;4991631;28;20473;-85
2021/05/23 01:51:21;;;;;;;13.13;3.80;;;6.40;95.30;;;;;;5002810;28;20049;-85
2021/05/23 01:53:47;;;;;;;8.37;3.30;;;6.30;95.30;;;;;;5004212;28;20038;-85
2021/05/23 01:56:13;;;;;;;10.33;3.73;;;6.30;95.50;;;;;;5004625;28;20088;-84
2021/05/23 01:58:39;;;;;;;15.60;4.00;;;6.20;95.50;;;;;;4988855;28;20112;-86
2021/05/23 02:01:06;;;;;;;7.73;2.87;;;6.20;95.60;;;;;;5006453;28;20132;-86
2021/05/23 02:03:32;;;;;;;8.53;2.97;;;6.20;95.60;;;;;;5004618;28;20030;-74
2021/05/23 02:06:00;;;;;;;11.00;3.60;;;6.30;95.70;;;;;;4989986;28;20477;-73
2021/05/23 02:08:32;;;;;;;12.13;3.53;;;6.30;95.50;;;;;;4980963;28;20038;-74
2021/05/23 02:11:07;;;;;;;13.80;3.73;;;6.20;95.60;;;;;;4991332;28;20121;-74
2021/05/23 02:13:34;;;;;;;9.20;2.80;;;6.20;95.70;;;;;;5016946;28;20068;-74
2021/05/23 02:16:01;;;;;;;9.80;3.43;;;6.20;95.70;;;;;;4985887;28;20072;-74
2021/05/23 02:18:29;;;;;;;10.10;3.70;;;6.20;95.70;;;;;;5004545;28;20139;-74
2021/05/23 02:20:55;;;;;;;12.00;3.33;;;6.20;95.70;;;;;;5010379;28;20791;-74
2021/05/23 02:23:23;;;;;;;7.40;2.93;;;6.20;95.70;;;;;;5006349;28;20049;-73
2021/05/23 02:25:53;;;;;;;12.47;4.30;;;6.10;95.60;;;;;;5020394;28;20037;-74
2021/05/23 02:28:20;;;;;;;8.90;2.80;;;6.10;95.60;;;;;;5006170;28;20042;-73
2021/05/23 02:30:56;;;;;;;9.50;3.43;;;6.10;95.70;;;;;;4968452;28;20126;-73
2021/05/23 02:33:24;;;;;;;10.57;3.90;;;6.10;95.80;;;;;;5005118;28;20120;-73
2021/05/23 02:35:53;;;;;;;6.80;2.83;;;6.20;95.90;;;;;;4990322;28;20100;-74
2021/05/23 02:38:22;;;;;;;10.17;2.87;;;6.10;95.80;;;;;;4975086;28;20053;-73
2021/05/23 02:40:49;;;;;;;9.87;2.97;;;6.10;95.80;;;;;;4982374;28;20152;-84
2021/05/23 02:43:19;;;;;;;7.17;3.40;;;6.10;95.80;;;;;;4995274;28;20116;-84
2021/05/23 02:45:46;;;;;;;14.48;3.85;;;6.10;95.70;;;;;;4984337;28;20482;-84
2021/05/23 02:48:12;;;;;;;14.10;4.17;;;6.10;95.70;;;;;;5011754;28;20193;-84
2021/05/23 02:50:45;;;;;;;8.90;3.13;;;6.10;95.70;;;;;;4987739;28;20755;-85
2021/05/23 02:53:12;;;;;;;8.87;2.67;;;6.10;95.80;;;;;;4999609;28;20041;-74
2021/05/23 02:55:41;;;;;;;8.73;3.50;;;6.10;95.90;;;;;;5014244;28;20226;-74
2021/05/23 02:58:11;;;;;;;11.20;3.97;;;6.10;95.70;;;;;;5016401;28;20056;-74
2021/05/23 03:00:38;;;;;;;8.47;3.23;;;6.00;95.80;;;;;;5017327;28;20041;-74
2021/05/23 03:03:05;;;;;;;14.87;3.97;;;6.00;95.80;;;;;;4973911;28;20050;-74
2021/05/23 03:05:31;;;;;;;10.50;3.70;;;6.00;95.90;;;;;;4979089;28;20077;-75
2021/05/23 03:07:58;;;;;;;13.00;3.67;;;6.00;96.00;;;;;;5011410;28;20053;-74
2021/05/23 03:10:31;;;;;;;11.67;4.77;;;6.00;96.00;;;;;;4989045;28;20039;-73
2021/05/23 03:12:58;;;;;;;10.00;4.00;;;6.00;96.00;;;;;;5003990;28;20049;-74
2021/05/23 03:15:26;;;;;;;10.53;3.80;;;6.00;96.00;;;;;;4993946;28;20034;-74
2021/05/23 03:17:52;;;;;;;11.30;5.17;;;5.90;96.00;;;;;;4990702;28;20041;-73
2021/05/23 03:20:24;;;;;;;17.63;5.37;;;6.00;96.10;;;;;;5003659;28;20038;-74
2021/05/23 03:22:52;;;;;;;16.53;5.00;;;6.00;96.10;;;;;;5014370;28;20041;-74
2021/05/23 03:25:19;;;;;;;14.80;4.57;;;6.00;96.20;;;;;;4985953;28;20233;-74
2021/05/23 03:27:46;;;;;;;14.07;4.90;;;6.00;96.20;;;;;;5011979;28;20493;-73
2021/05/23 03:30:15;;;;;;;12.27;4.43;;;5.90;96.20;;;;;;4997377;28;20099;-74
2021/05/23 03:32:41;;;;;;;17.33;4.77;;;5.90;96.20;;;;;;4996307;28;20037;-74
2021/05/23 03:35:08;;;;;;;11.90;5.20;;;6.00;96.40;;;;;;4994704;28;20042;-74
2021/05/23 03:37:36;;;;;;;10.53;4.23;;;5.90;96.30;;;;;;5009813;28;20038;-73
2021/05/23 03:40:04;;;;;;;10.10;4.80;;;5.90;96.40;;;;;;4970462;28;20133;-75
2021/05/23 03:42:30;;;;;;;9.37;4.10;;;5.90;96.40;;;;;;4995216;28;20042;-74
2021/05/23 03:44:55;;;;;;;14.37;4.37;;;5.90;96.40;;;;;;4986231;28;20671;-74
2021/05/23 03:47:21;;;;;;;15.00;4.80;;;5.90;96.50;;;;;;4983244;28;20041;-74
2021/05/23 03:49:47;;;;;;;12.53;4.63;;;6.00;96.50;;;;;;4979512;28;20508;-74
2021/05/23 03:52:13;;;;;;;14.70;4.30;;;5.90;96.50;;;;;;4981607;28;20049;-74
2021/05/23 03:54:39;;;;;;;11.57;4.90;;;6.00;96.60;;;;;;4986675;28;20076;-74
2021/05/23 03:57:06;;;;;;;12.13;5.13;;;6.00;96.70;;;;;;5004028;28;20114;-74
2021/05/23 03:59:33;;;;;;;13.47;5.33;;;6.10;96.80;;;;;;5005026;28;20160;-74
2021/05/23 04:02:00;;;;;;;13.70;4.70;;;6.20;96.80;;;;;;4992784;28;20069;-74
2021/05/23 04:04:35;;;;;;;8.40;4.70;;;6.30;96.80;;;;;;4978772;28;20118;-74
2021/05/23 04:07:01;;;;;;;12.00;4.57;;;6.40;96.80;;;;;;5001641;28;20046;-74
2021/05/23 04:09:30;;;;;;;13.17;5.00;;;6.50;96.80;;;;;;4990989;28;20053;-73
2021/05/23 04:11:57;;;;;;;13.90;5.03;;;6.50;96.70;;;;;;4998645;28;20050;-74
2021/05/23 04:14:23;;;;;;;13.43;5.10;;;6.60;96.80;;;;;;5002162;28;20474;-74
2021/05/23 04:16:49;;;;;;;13.57;4.67;;;6.60;96.70;;;;;;5002958;28;20050;-74
2021/05/23 04:19:15;;;;;;;11.83;4.50;;;6.70;96.80;;;;;;4976438;28;20515;-75
2021/05/23 04:21:40;;;;;;;8.90;4.47;;;6.70;96.70;;;;;;5005663;28;20171;-74
2021/05/23 04:24:07;;;;;;;15.93;4.90;;;6.80;96.70;;;;;;4949200;28;20049;-74
2021/05/23 04:26:33;;;;;;;12.63;4.77;;;6.80;96.80;;;;;;5022806;28;20045;-74
2021/05/23 04:28:59;;;;;;;11.30;4.33;;;6.80;96.70;;;;;;4998752;28;20042;-75
2021/05/23 04:31:24;;;;;;;13.30;5.27;;;6.90;96.70;;;;;;4999540;28;20593;-74
2021/05/23 04:33:50;;;;;;;11.03;4.53;;;6.90;96.70;;;;;;4983862;28;20701;-74
2021/05/23 04:36:16;;;;;;;11.13;4.20;;;7.00;96.80;;;;;;5014305;28;20053;-74
2021/05/23 04:38:42;;;;;;;9.77;4.13;;;7.00;96.70;;;;;;4985769;28;20064;-74
2021/05/23 04:41:11;;;;;;;9.87;4.03;;;7.10;96.70;;;;;;5011425;28;20052;-74
2021/05/23 04:43:36;;;;;;;10.30;4.20;;;7.10;96.70;;;;;;4953171;28;20418;-74
2021/05/23 04:46:02;;;;;;;10.73;4.30;;;7.20;96.70;;;;;;4990963;28;20033;-74
2021/05/23 04:48:28;;;;;;;9.53;3.87;;;7.30;96.80;;;;;;4987907;28;20042;-74
2021/05/23 04:50:54;;;;;;;13.07;4.43;;;7.40;96.80;;;;;;5007127;28;20497;-74
2021/05/23 04:53:19;;;;;;;9.63;3.63;;;7.50;96.80;;;;;;5017149;28;20278;-74
2021/05/23 04:55:45;;;;;;;15.73;4.20;;;7.70;96.70;;;;;;4998387;28;20120;-74
2021/05/23 04:58:11;;;;;;;12.57;4.17;;;7.80;96.60;;;;;;4982905;28;20057;-74
2021/05/23 05:00:37;;;;;;;10.63;4.10;;;8.00;96.60;;;;;;4988441;28;20043;-74
2021/05/23 05:03:03;;;;;;;12.27;3.97;;;8.00;96.40;;;;;;4994985;28;20041;-75
2021/05/23 05:05:29;;;;;;;10.63;4.10;;;8.10;96.30;;;;;;5009736;28;20034;-74
2021/05/23 05:07:55;;;;;;;10.53;4.53;;;8.20;96.20;;;;;;4967002;28;20046;-74
2021/05/23 05:10:21;;;;;;;12.17;4.10;;;8.20;96.10;;;;;;5015171;28;20042;-73
2021/05/23 05:12:47;;;;;;;9.87;4.57;;;8.20;96.10;;;;;;5023450;28;20037;-74
2021/05/23 05:15:14;;;;;;;10.37;4.20;;;8.30;96.10;;;;;;4973472;28;20037;-74
2021/05/23 05:17:39;;;;;;;12.70;4.53;;;8.30;96.10;;;;;;4993710;28;20042;-74
2021/05/23 05:20:07;;;;;;;12.03;4.50;;;8.30;96.10;;;;;;4975689;28;20053;-74
2021/05/23 05:22:33;;;;;;;14.00;5.20;;;8.40;96.10;;;;;;5010606;28;20088;-74
2021/05/23 05:24:59;;;;;;;13.10;5.07;;;8.40;96.00;;;;;;4984282;28;20097;-74
2021/05/23 05:27:25;;;;;;;13.40;5.93;;;8.40;96.30;;;;;;4988124;28;20049;-75
2021/05/23 05:29:51;;;;;;;12.23;6.27;;;8.40;96.00;;;;;;4977627;28;20515;-75
2021/05/23 05:32:20;;;;;;;13.73;6.30;;;8.40;96.00;;;;;;4999238;28;20041;-74
2021/05/23 05:34:46;;;;;;;12.47;6.93;;;8.40;96.10;;;;;;4987094;28;20098;-75
2021/05/23 05:37:12;;;;;;;16.67;7.30;;;8.50;96.10;;;;;;4965764;28;20109;-74
2021/05/23 05:39:41;;;;;;;16.17;7.87;;;8.50;96.10;;;;;;4985603;28;20045;-74
2021/05/23 05:42:07;;;;;;;16.33;7.93;;;8.60;96.10;;;;;;4968998;28;20038;-74
2021/05/23 05:44:32;;;;;;;15.33;7.73;;;8.60;96.10;;;;;;5007720;28;20040;-74
2021/05/23 05:46:58;;;;;;;15.03;8.07;;;8.70;96.10;;;;;;5001749;28;20812;-74
2021/05/23 05:49:24;;;;;;;13.30;7.30;;;8.70;96.00;;;;;;5009533;28;20120;-74
2021/05/23 05:51:50;;;;;;;15.93;7.90;;;8.70;96.00;;;;;;5006052;28;20067;-74
2021/05/23 05:54:16;;;;;;;17.87;8.10;;;8.70;96.00;;;;;;4969871;28;20053;-74
2021/05/23 05:56:42;;;;;;;17.73;8.77;;;8.70;96.00;;;;;;4992663;28;20045;-74
2021/05/23 05:59:08;;;;;;;16.83;8.83;;;8.80;96.00;;;;;;4988699;28;20037;-74
2021/05/23 06:01:34;;;;;;;17.30;9.57;;;8.80;96.10;;;;;;5017069;28;20067;-74
2021/05/23 06:04:00;;;;;;;17.60;9.07;;;8.90;96.10;;;;;;4984584;28;20283;-75
2021/05/23 06:06:26;;;;;;;15.80;9.10;;;9.00;96.20;;;;;;4981075;28;20036;-74
2021/05/23 06:08:54;;;;;;;17.63;8.67;;;9.20;96.70;;;;;;5000842;28;20129;-74
2021/05/23 06:11:20;;;;;;;17.43;9.17;;;9.40;96.30;;;;;;4989551;28;20535;-74
2021/05/23 06:13:46;;;;;;;19.88;9.23;;;9.50;96.10;;;;;;4996951;28;20064;-75
2021/05/23 06:16:12;;;;;;;14.95;8.85;;;9.60;96.00;;;;;;4977936;28;20493;-75
2021/05/23 06:18:38;;;;;;;16.13;8.25;;;9.70;95.80;;;;;;5016805;28;20042;-74
2021/05/23 06:21:04;;;;;;;19.70;9.43;;;9.80;95.80;;;;;;4999195;28;20051;-74
2021/05/23 06:23:30;;;;;;;17.88;9.27;;;9.80;95.60;;;;;;4984069;28;20505;-75
2021/05/23 06:25:56;;;;;;;17.27;7.25;;;9.80;95.50;;;;;;4976805;28;20046;-74
2021/05/23 06:28:22;;;;;;;16.58;8.25;;;9.90;95.60;;;;;;4960794;28;20134;-75
2021/05/23 06:30:47;;;;;;;16.67;8.07;;;10.00;95.60;;;;;;5021283;28;20041;-74
2021/05/23 06:33:13;;;;;;;16.95;8.75;;;10.10;95.40;;;;;;4993515;28;20564;-75
2021/05/23 06:35:39;;;;;;;22.27;9.02;;;10.20;95.40;;;;;;4981617;28;20034;-74
2021/05/23 06:38:05;;;;;;;21.38;8.98;;;10.30;95.20;;;;;;5007103;28;20046;-74
2021/05/23 06:40:31;;;;;;;19.55;8.35;;;10.40;95.10;;;;;;4983194;28;20477;-75
2021/05/23 06:43:00;;;;;;;17.83;8.23;;;10.50;95.00;;;;;;4989334;28;20065;-74
2021/05/23 06:45:26;;;;;;;14.02;8.30;;;10.50;94.80;;;;;;5008105;28;20052;-75
2021/05/23 06:47:52;;;;;;;13.55;7.85;;;10.50;94.70;;;;;;4998796;28;20041;-74
2021/05/23 06:50:18;;;;;;;18.83;7.70;;;10.50;94.70;;;;;;4978211;28;20254;-75
2021/05/23 06:52:44;;;;;;;22.75;8.02;;;10.60;94.50;;;;;;4982996;28;20062;-74
2021/05/23 06:55:11;;;;;;;17.35;8.73;;;10.50;94.50;;;;;;5001825;28;20044;-74
2021/05/23 06:57:36;;;;;;;12.48;6.82;;;10.60;94.40;;;;;;4985568;28;20112;-74
2021/05/23 07:00:07;;;;;;;16.08;7.57;;;10.60;94.40;;;;;;5002708;28;20041;-74
2021/05/23 07:02:35;;;;;;;18.45;7.07;;;10.70;94.40;;;;;;5004167;28;20045;-84
2021/05/23 07:05:03;;;;;;;15.73;7.88;;;10.70;94.10;;;;;;4988098;28;20044;-84
2021/05/23 07:07:29;;;;;;;10.27;6.05;;;10.80;93.90;;;;;;5012501;28;20101;-83
2021/05/23 07:09:55;;;;;;;17.10;6.72;;;10.80;93.40;;;;;;5003813;28;20045;-85
2021/05/23 07:12:21;;;;;;;12.32;6.63;;;10.90;93.50;;;;;;4972626;28;20042;-85
2021/05/23 07:14:47;;;;;;;14.57;6.90;;;10.90;93.40;;;;;;4988456;28;20057;-85
2021/05/23 07:17:13;;;;;;;16.23;7.93;;;11.00;93.20;;;;;;5003488;28;20520;-85
2021/05/23 07:19:39;;;;;;;16.08;7.05;;;11.10;93.30;;;;;;4995870;28;20414;-83
2021/05/23 07:22:05;;;;;;;13.30;6.85;;;11.10;93.40;;;;;;4965970;28;20409;-85
2021/05/23 07:24:30;;;;;;;14.93;7.20;;;11.20;93.20;;;;;;5009888;28;20038;-84
2021/05/23 07:26:56;;;;;;;17.63;7.20;;;11.30;93.10;;;;;;5015985;28;20389;-86
2021/05/23 07:29:22;;;;;;;13.98;6.68;;;11.40;93.00;;;;;;5005325;28;20045;-74
2021/05/23 07:31:48;;;;;;;15.50;6.72;;;11.40;92.50;;;;;;4970055;28;20108;-75
2021/05/23 07:34:14;;;;;;;14.10;6.88;;;11.50;92.50;;;;;;4980726;28;20038;-74
2021/05/23 07:36:40;;;;;;;15.05;6.95;;;11.60;92.40;;;;;;5005681;28;20057;-75
2021/05/23 07:39:06;;;;;;;9.82;6.35;;;11.50;92.00;;;;;;5003471;28;20128;-75
2021/05/23 07:41:32;;;;;;;12.35;6.20;;;11.50;91.90;;;;;;4984431;28;21130;-75
2021/05/23 07:43:58;;;;;;;13.10;6.28;;;11.50;90.90;;;;;;4994747;28;20042;-75
2021/05/23 07:46:24;;;;;;;10.82;6.25;;;11.40;91.20;;;;;;5008360;28;20492;-74
2021/05/23 07:48:50;;;;;;;9.52;5.63;;;11.40;90.90;;;;;;5004792;28;20436;-75
2021/05/23 07:51:16;;;;;;;9.82;5.72;;;11.40;90.60;;;;;;4967112;28;20049;-75
2021/05/23 07:53:41;;;;;;;8.88;5.38;;;11.50;90.30;;;;;;4977223;28;20477;-75
2021/05/23 07:56:08;;;;;;;10.45;5.00;;;11.60;90.50;;;;;;5002830;28;20405;-75
2021/05/23 07:58:34;;;;;;;9.20;5.25;;;11.60;90.40;;;;;;4961941;28;21046;-76
2021/05/23 08:01:00;;;;;;;9.10;5.15;;;11.70;90.60;;;;;;5005568;28;20512;-74
2021/05/23 08:03:27;;;;;;;10.30;6.63;;;11.70;90.80;;;;;;5019826;28;20038;-74
2021/05/23 08:05:57;;;;;;;11.77;6.05;;;11.80;90.40;;;;;;5009645;28;20121;-75
2021/05/23 08:08:25;;;;;;;13.05;6.32;;;11.80;90.70;;;;;;4988422;28;20046;-75
2021/05/23 08:10:51;;;;;;;15.38;6.45;;;11.90;90.80;;;;;;5019991;28;20690;-74
2021/05/23 08:13:17;;;;;;;14.02;7.65;;;11.90;90.70;;;;;;4988881;28;20476;-75
2021/05/23 08:15:44;;;;;;;12.13;7.13;;;12.00;90.60;;;;;;4972224;28;20512;-74
2021/05/23 08:18:11;;;;;;;12.75;8.52;;;12.10;90.70;;;;;;4978613;28;20046;-75
2021/05/23 08:20:37;;;;;;;15.35;10.23;;;12.20;90.90;;;;;;4977580;28;20037;-75
2021/05/23 08:23:03;;;;;;;16.95;10.38;;;12.20;90.50;;;;;;5004329;28;20493;-74
2021/05/23 08:25:29;;;;;;;13.05;9.95;;;12.30;90.60;;;;;;5021093;28;20093;-74
2021/05/23 08:27:58;;;;;;;17.35;10.05;;;12.40;90.20;;;;;;4970916;28;20042;-75
2021/05/23 08:30:24;;;;;;;14.07;10.20;;;12.50;90.70;;;;;;5019699;28;20524;-75
2021/05/23 08:32:50;;;;;;;14.23;10.07;;;12.70;90.80;;;;;;4985999;28;20096;-76
2021/05/23 08:35:16;;;;;;;12.90;10.23;;;12.80;90.50;;;;;;4968947;28;20037;-75
2021/05/23 08:37:42;;;;;;;15.93;10.15;;;12.90;90.60;;;;;;4959304;28;20461;-81
2021/05/23 08:40:09;;;;;;;13.48;9.88;;;13.00;90.30;;;;;;5002199;28;20493;-85
2021/05/23 08:42:36;;;;;;;12.65;10.30;;;13.00;89.20;;;;;;5001813;28;20497;-83
2021/05/23 08:45:05;;;;;;;10.77;9.68;;;13.00;89.60;;;;;;4999136;28;20034;-84
2021/05/23 08:47:38;;;;;;;13.60;11.27;;;13.00;90.00;;;;;;4970742;28;20037;-84
2021/05/23 08:50:05;;;;;;;13.40;10.60;;;12.90;88.70;;;;;;4991356;28;20038;-85
2021/05/23 08:52:30;;;;;;;11.77;10.52;;;12.70;89.00;;;;;;4971287;28;20043;-85
2021/05/23 08:54:58;;;;;;;12.23;10.82;;;12.50;89.30;;;;;;4984627;28;20112;-84
2021/05/23 08:57:24;;;;;;;10.35;8.82;;;12.50;90.10;;;;;;4980901;28;20049;-82
2021/05/23 08:59:51;;;;;;;10.20;9.10;;;12.50;90.10;;;;;;4986410;28;20053;-86
2021/05/23 09:02:17;;;;;;;13.32;9.52;;;12.40;90.30;;;;;;4981464;28;20041;-85
2021/05/23 09:04:55;;;;;;;12.48;9.23;;;12.40;90.30;;;;;;4988772;28;20042;-84
2021/05/23 09:07:21;;;;;;;12.07;9.00;;;12.50;90.50;;;;;;4985072;28;20041;-84
2021/05/23 09:09:48;;;;;;;13.50;9.88;;;12.50;90.40;;;;;;4998811;28;20042;-84
2021/05/23 09:12:19;;;;;;;11.77;10.25;;;12.50;90.50;;;;;;4966594;28;20030;-85
2021/05/23 09:14:48;;;;;;;11.20;10.05;;;12.50;90.70;;;;;;4986378;28;20042;-83
2021/05/23 09:17:30;;;;;;;11.68;10.25;;;12.50;91.00;;;;;;5002114;28;20038;-85
2021/05/23 09:19:56;;;;;;;12.40;9.70;;;12.50;90.70;;;;;;5019279;28;20045;-86
2021/05/23 09:22:30;;;;;;;13.52;11.00;;;12.60;90.90;;;;;;4977219;28;20033;-82
2021/05/23 09:25:03;;;;;;;11.20;10.02;;;12.70;90.70;;;;;;5023232;28;20038;-85
2021/05/23 09:27:31;;;;;;;12.25;10.63;;;12.70;90.60;;;;;;4984606;28;20061;-81
2021/05/23 09:30:00;;;;;;;11.82;10.60;;;12.80;90.10;;;;;;5009267;28;20042;-83
2021/05/23 09:32:26;;;;;;;13.35;11.95;;;12.80;90.20;;;;;;4999706;28;20474;-84
2021/05/23 09:35:07;;;;;;;15.73;12.32;;;12.80;90.40;;;;;;4990773;28;20125;-84
2021/05/23 09:37:32;;;;;;;13.85;11.43;;;12.80;90.30;;;;;;4995655;28;20093;-84
2021/05/23 09:40:00;;;;;;;15.45;11.32;;;12.70;90.30;;;;;;4981430;28;20139;-84
2021/05/23 09:42:26;;;;;;;13.40;11.13;;;12.70;90.60;;;;;;5005666;28;20508;-86
2021/05/23 09:45:00;;;;;;;12.63;11.27;;;12.80;90.70;;;;;;4989509;28;20517;-83
2021/05/23 09:47:26;;;;;;;13.20;10.70;;;12.80;90.70;;;;;;5024586;28;20088;-83
2021/05/23 09:49:56;;;;;;;11.43;9.00;;;12.80;90.50;;;;;;4995923;28;20504;-85
2021/05/23 09:52:52;;;;;;;12.73;10.57;;;12.80;90.50;;;;;;5011255;28;20034;-86
2021/05/23 09:55:18;;;;;;;13.38;10.65;;;12.90;90.60;;;;;;4987822;28;20073;-83
2021/05/23 09:57:44;;;;;;;11.82;10.20;;;13.30;90.80;;;;;;4985734;28;20050;-86
2021/05/23 10:00:12;;;;;;;11.38;9.30;;;13.60;90.50;;;;;;4997952;28;20048;-85
2021/05/23 10:03:00;;;;;;;13.13;10.45;;;13.80;88.70;;;;;;5012558;28;20038;-84
2021/05/23 10:05:30;;;;;;;16.55;11.00;;;13.80;88.70;;;;;;5004607;28;20285;-85
2021/05/23 10:08:11;;;;;;;12.43;10.95;;;13.80;89.10;;;;;;5011230;28;20115;-83
2021/05/23 10:10:37;;;;;;;;;;;13.70;88.70;;;;;;4992346;28;20041;-82
2021/05/23 10:13:06;;;;;;;11.48;10.27;;;14.00;90.00;;;;;;4985946;28;19921;-84
2021/05/23 10:15:32;;;;;;;9.05;8.15;;;14.20;88.80;;;;;;5002851;28;20091;-83
2021/05/23 10:17:58;;;;;;;5.20;3.55;;;14.30;86.80;;;;;;4995104;28;20448;-87
2021/05/23 10:20:27;;;;;;;2.30;1.55;;;14.20;85.00;;;;;;4987583;28;20042;-81
2021/05/23 10:22:55;;;;;;;2.20;0.80;;;13.80;81.40;;;;;;5009490;28;20534;-83
2021/05/23 10:25:22;;;;;;;1.85;0.90;;;13.20;82.20;;;;;;4990351;28;20041;-82
2021/05/23 10:27:48;;;;;;;2.13;1.10;;;12.70;81.40;;;;;;5007848;28;20497;-84
2021/05/23 10:30:20;;;;;;;1.90;1.08;;;12.20;84.90;;;;;;5009490;28;20048;-83
2021/05/23 10:32:46;;;;;;;1.87;1.00;;;11.80;87.50;;;;;;4991116;28;20097;-84
2021/05/23 10:35:41;;;;;;;3.58;1.30;;;11.40;89.50;;;;;;4991683;28;20046;-83
2021/05/23 10:38:10;;;;;;;1.83;1.50;;;11.10;90.50;;;;;;4997693;28;20741;-83
2021/05/23 10:40:56;;;;;;;2.30;1.60;;;10.90;91.20;;;;;;4970267;28;20042;-82
2021/05/23 10:43:28;;;;;;;3.25;1.88;;;10.80;91.90;;;;;;4974472;28;20034;-82
2021/05/23 10:46:12;;;;;;;3.20;1.50;;;10.70;92.20;;;;;;5006691;28;20058;-74
2021/05/23 10:48:39;;;;;;;3.20;2.05;;;10.60;92.70;;;;;;4987135;28;20397;-74
2021/05/23 10:51:13;;;;;;;2.53;1.80;;;10.60;92.90;;;;;;4991305;28;20046;-74
2021/05/23 10:53:39;;;;;;;3.25;1.45;;;10.60;93.20;;;;;;4987157;28;20046;-75
2021/05/23 10:56:05;;;;;;;2.15;1.35;;;10.70;93.10;;;;;;5003294;28;20117;-74
2021/05/23 10:58:31;;;;;;;2.67;1.45;;;10.90;93.20;;;;;;5016592;28;20176;-75
2021/05/23 11:00:58;;;;;;;2.35;1.70;;;11.10;93.00;;;;;;4992475;28;20501;-74
2021/05/23 11:03:26;;;;;;;2.95;1.40;;;11.30;92.70;;;;;;5028109;28;20335;-74
2021/05/23 11:06:03;;;;;;;3.47;1.50;;;11.40;92.60;;;;;;4986912;28;20034;-75
2021/05/23 11:08:31;;;;;;;4.30;1.63;;;11.60;92.40;;;;;;4999510;28;20037;-74
2021/05/23 11:11:02;;;;;;;2.92;1.50;;;11.50;92.30;;;;;;4983132;28;20038;-74
2021/05/23 11:13:31;;;;;;;2.30;1.80;;;11.50;92.30;;;;;;4971861;28;20049;-73
2021/05/23 11:16:15;;;;;;;3.37;2.10;;;11.50;92.30;;;;;;4991701;28;20041;-73
2021/05/23 11:18:41;;;;;;;2.47;2.00;;;11.40;92.40;;;;;;4984660;28;20285;-73
2021/05/23 11:21:12;;;;;;;3.33;2.20;;;11.30;92.40;;;;;;5005315;28;20068;-74
2021/05/23 11:23:46;;;;;;;3.30;2.60;;;11.20;92.50;;;;;;4987903;28;20613;-73
2021/05/23 11:26:16;;;;;;;4.07;2.72;;;11.10;92.70;;;;;;4970147;28;20252;-74
2021/05/23 11:28:53;;;;;;;4.25;3.00;;;10.90;92.70;;;;;;4986917;28;20081;-73
2021/05/23 11:31:28;;;;;;;2.50;2.17;;;10.80;92.80;;;;;;5005330;28;20049;-74
2021/05/23 11:33:54;;;;;;;3.15;2.28;;;10.80;93.00;;;;;;5003871;28;20237;-74
2021/05/23 11:36:22;;;;;;;4.35;2.67;;;10.70;93.30;;;;;;4998900;28;20061;-73
2021/05/23 11:38:48;;;;;;;4.05;3.00;;;10.70;93.50;;;;;;4989101;28;20413;-73
2021/05/23 11:41:25;;;;;;;5.93;3.53;;;10.70;93.30;;;;;;5011687;28;20412;-74
2021/05/23 11:43:56;;;;;;;5.30;3.42;;;10.60;93.40;;;;;;4985847;28;20038;-74
2021/05/23 11:46:22;;;;;;;;;;;10.50;93.80;;;;;;5026438;28;20095;-74
2021/05/23 11:48:48;;;;;;;4.90;3.42;;;10.40;93.80;;;;;;5008531;28;20628;-80
2021/05/23 11:51:18;;;;;;;4.63;3.47;;;10.30;94.00;;;;;;5011458;28;20129;-80
2021/05/23 11:53:48;;;;;;;4.32;3.20;;;10.20;94.20;;;;;;5002419;28;20072;-80
2021/05/23 11:56:26;;;;;;;5.18;3.38;;;10.20;94.50;;;;;;5005706;28;20643;-81
2021/05/23 11:58:53;;;;;;;4.10;2.72;;;10.20;94.70;;;;;;5014775;28;20037;-79
2021/05/23 12:01:31;;;;;;;4.82;2.85;;;10.20;94.90;;;;;;5024875;28;20048;-79
2021/05/23 12:04:05;;;;;;;5.65;3.42;;;10.30;94.90;;;;;;5018686;28;20046;-80
2021/05/23 12:06:34;;;;;;;4.00;2.85;;;10.40;95.20;;;;;;5009761;28;20046;-80
2021/05/23 12:09:10;;;;;;;4.20;3.50;;;10.50;95.40;;;;;;5021831;28;20067;-81
2021/05/23 12:11:48;;;;;;;3.50;3.15;;;10.70;95.70;;;;;;5014782;28;20121;-80
2021/05/23 12:14:31;;;;;;;4.22;3.08;;;10.80;95.60;;;;;;5021981;28;20048;-81
2021/05/23 12:17:09;;;;;;;3.53;2.92;;;10.90;95.50;;;;;;5025187;28;20043;-81
2021/05/23 12:19:45;;;;;;;3.25;2.80;;;11.00;95.50;;;;;;5013410;28;20653;-81
2021/05/23 12:22:12;;;;;;;5.95;4.47;;;11.10;95.40;;;;;;5006524;28;20897;-81
2021/05/23 12:24:40;;;;;;;4.75;3.38;;;11.30;95.60;;;;;;5012798;28;20034;-73
2021/05/23 12:27:06;;;;;;;5.28;4.60;;;11.50;95.60;;;;;;5019057;28;20038;-74
2021/05/23 12:29:32;;;;;;;6.38;4.13;;;11.60;95.40;;;;;;5019055;28;20033;-74
2021/05/23 12:32:03;;;;;;;6.35;4.93;;;11.70;95.10;;;;;;5015181;28;20496;-74
2021/05/23 12:34:30;;;;;;;4.88;3.88;;;11.70;95.00;;;;;;4992674;28;20053;-74
2021/05/23 12:37:00;;;;;;;4.90;3.20;;;11.70;94.70;;;;;;5022646;28;20033;-74
2021/05/23 12:39:26;;;;;;;4.85;3.85;;;11.70;94.50;;;;;;5017557;28;20091;-74
2021/05/23 12:41:53;;;;;;;4.65;4.00;;;11.80;94.50;;;;;;5002031;28;20041;-73
2021/05/23 12:44:24;;;;;;;6.32;3.65;;;12.00;94.80;;;;;;5008010;28;20437;-74
2021/05/23 12:46:52;;;;;;;5.93;4.07;;;12.20;94.60;;;;;;4999486;28;20074;-73
2021/05/23 12:49:25;;;;;;;4.40;4.00;;;12.30;93.90;;;;;;5008478;28;20041;-74
2021/05/23 12:51:53;;;;;;;5.10;4.10;;;12.30;93.60;;;;;;5009467;28;20619;-74